sensor_id;sensor_type;location;lat;lon;timestamp;temperature;humidity
16907;DHT22;8570;52.380;4.654;2023-08-20T00:03:12;18.80;99.90
16907;DHT22;8570;52.380;4.654;2023-08-20T00:08:14;18.80;99.90
16907;DHT22;8570;52.380;4.654;2023-08-20T00:13:18;18.80;99.90
16907;DHT22;8570;52.380;4.654;2023-08-20T00:18:20;18.80;99.90
16907;DHT22;8570;52.380;4.654;2023-08-20T00:23:23;18.80;99.90
16907;DHT22;8570;52.380;4.654;2023-08-20T00:28:26;18.80;99.90
16907;DHT22;8570;52.380;4.654;2023-08-20T00:33:28;18.80;99.90
16907;DHT22;8570;52.380;4.654;2023-08-20T00:38:30;18.80;99.90
16907;DHT22;8570;52.380;4.654;2023-08-20T00:43:33;18.70;99.90
16907;DHT22;8570;52.380;4.654;2023-08-20T00:48:35;18.70;99.90
16907;DHT22;8570;52.380;4.654;2023-08-20T00:53:37;18.70;99.90
16907;DHT22;8570;52.380;4.654;2023-08-20T00:58:41;18.60;99.90
16907;DHT22;8570;52.380;4.654;2023-08-20T01:03:43;18.60;99.90
16907;DHT22;8570;52.380;4.654;2023-08-20T01:08:47;18.60;99.90
16907;DHT22;8570;52.380;4.654;2023-08-20T01:13:55;18.60;99.90
16907;DHT22;8570;52.380;4.654;2023-08-20T01:18:57;18.60;99.90
16907;DHT22;8570;52.380;4.654;2023-08-20T01:24:14;18.60;99.90
16907;DHT22;8570;52.380;4.654;2023-08-20T01:29:20;18.60;99.90
16907;DHT22;8570;52.380;4.654;2023-08-20T01:34:22;18.60;99.90
16907;DHT22;8570;52.380;4.654;2023-08-20T01:39:24;18.50;99.90
16907;DHT22;8570;52.380;4.654;2023-08-20T01:44:27;18.50;99.90
16907;DHT22;8570;52.380;4.654;2023-08-20T01:49:29;18.50;99.90
16907;DHT22;8570;52.380;4.654;2023-08-20T01:54:31;18.50;99.90
16907;DHT22;8570;52.380;4.654;2023-08-20T01:59:35;18.40;99.90
16907;DHT22;8570;52.380;4.654;2023-08-20T02:04:37;18.40;99.90
16907;DHT22;8570;52.380;4.654;2023-08-20T02:09:39;18.40;99.90
16907;DHT22;8570;52.380;4.654;2023-08-20T02:14:42;18.30;99.90
16907;DHT22;8570;52.380;4.654;2023-08-20T02:19:44;18.30;99.90
16907;DHT22;8570;52.380;4.654;2023-08-20T02:24:46;18.20;99.90
16907;DHT22;8570;52.380;4.654;2023-08-20T02:29:49;18.20;99.90
16907;DHT22;8570;52.380;4.654;2023-08-20T02:34:52;18.10;99.90
16907;DHT22;8570;52.380;4.654;2023-08-20T02:39:54;18.10;99.90
16907;DHT22;8570;52.380;4.654;2023-08-20T02:44:57;18.10;99.90
16907;DHT22;8570;52.380;4.654;2023-08-20T02:49:59;18.10;99.90
16907;DHT22;8570;52.380;4.654;2023-08-20T02:55:01;18.10;99.90
16907;DHT22;8570;52.380;4.654;2023-08-20T03:00:06;18.00;99.90
16907;DHT22;8570;52.380;4.654;2023-08-20T03:05:11;18.00;99.90
16907;DHT22;8570;52.380;4.654;2023-08-20T03:10:13;17.90;99.90
16907;DHT22;8570;52.380;4.654;2023-08-20T03:15:17;17.90;99.90
16907;DHT22;8570;52.380;4.654;2023-08-20T03:20:18;17.80;99.90
16907;DHT22;8570;52.380;4.654;2023-08-20T03:25:20;17.80;99.90
16907;DHT22;8570;52.380;4.654;2023-08-20T03:30:23;17.70;99.90
16907;DHT22;8570;52.380;4.654;2023-08-20T03:35:25;17.70;99.90
16907;DHT22;8570;52.380;4.654;2023-08-20T03:40:27;17.60;99.90
16907;DHT22;8570;52.380;4.654;2023-08-20T03:45:31;17.60;99.90
16907;DHT22;8570;52.380;4.654;2023-08-20T03:50:33;17.50;99.90
16907;DHT22;8570;52.380;4.654;2023-08-20T03:55:35;17.50;99.90
16907;DHT22;8570;52.380;4.654;2023-08-20T04:00:38;17.50;99.90
16907;DHT22;8570;52.380;4.654;2023-08-20T04:05:40;17.50;99.90
16907;DHT22;8570;52.380;4.654;2023-08-20T04:10:45;17.50;99.90
16907;DHT22;8570;52.380;4.654;2023-08-20T04:15:49;17.40;99.90
16907;DHT22;8570;52.380;4.654;2023-08-20T04:20:51;17.40;99.90
16907;DHT22;8570;52.380;4.654;2023-08-20T04:25:53;17.40;99.90
16907;DHT22;8570;52.380;4.654;2023-08-20T04:30:56;17.40;99.90
16907;DHT22;8570;52.380;4.654;2023-08-20T04:36:00;17.40;99.90
16907;DHT22;8570;52.380;4.654;2023-08-20T04:41:02;17.40;99.90
16907;DHT22;8570;52.380;4.654;2023-08-20T04:46:06;17.30;99.90
16907;DHT22;8570;52.380;4.654;2023-08-20T04:51:08;17.30;99.90
16907;DHT22;8570;52.380;4.654;2023-08-20T04:56:11;17.30;99.90
16907;DHT22;8570;52.380;4.654;2023-08-20T05:01:14;17.30;99.90
16907;DHT22;8570;52.380;4.654;2023-08-20T05:06:16;17.30;99.90
16907;DHT22;8570;52.380;4.654;2023-08-20T05:11:18;17.30;99.90
16907;DHT22;8570;52.380;4.654;2023-08-20T05:16:22;17.30;99.90
16907;DHT22;8570;52.380;4.654;2023-08-20T05:21:23;17.30;99.90
16907;DHT22;8570;52.380;4.654;2023-08-20T05:26:25;17.30;99.90
16907;DHT22;8570;52.380;4.654;2023-08-20T05:31:29;17.30;99.90
16907;DHT22;8570;52.380;4.654;2023-08-20T05:36:30;17.30;99.90
16907;DHT22;8570;52.380;4.654;2023-08-20T05:41:32;17.30;99.90
16907;DHT22;8570;52.380;4.654;2023-08-20T05:46:36;17.40;99.90
16907;DHT22;8570;52.380;4.654;2023-08-20T05:51:38;17.40;99.90
16907;DHT22;8570;52.380;4.654;2023-08-20T05:56:39;17.40;99.90
16907;DHT22;8570;52.380;4.654;2023-08-20T06:01:43;17.50;99.90
16907;DHT22;8570;52.380;4.654;2023-08-20T06:06:45;17.50;99.90
16907;DHT22;8570;52.380;4.654;2023-08-20T06:11:46;17.50;99.90
16907;DHT22;8570;52.380;4.654;2023-08-20T06:16:50;17.60;99.90
16907;DHT22;8570;52.380;4.654;2023-08-20T06:21:52;17.60;99.90
16907;DHT22;8570;52.380;4.654;2023-08-20T06:26:54;17.70;99.90
16907;DHT22;8570;52.380;4.654;2023-08-20T06:31:57;17.80;99.90
16907;DHT22;8570;52.380;4.654;2023-08-20T06:36:59;17.90;99.90
16907;DHT22;8570;52.380;4.654;2023-08-20T06:42:01;17.90;99.90
16907;DHT22;8570;52.380;4.654;2023-08-20T06:47:05;18.00;99.90
16907;DHT22;8570;52.380;4.654;2023-08-20T06:52:06;18.10;99.90
16907;DHT22;8570;52.380;4.654;2023-08-20T06:57:08;18.20;99.90
16907;DHT22;8570;52.380;4.654;2023-08-20T07:02:12;18.30;99.90
16907;DHT22;8570;52.380;4.654;2023-08-20T07:07:14;18.40;99.90
16907;DHT22;8570;52.380;4.654;2023-08-20T07:12:16;18.50;99.90
16907;DHT22;8570;52.380;4.654;2023-08-20T07:17:19;18.60;99.90
16907;DHT22;8570;52.380;4.654;2023-08-20T07:22:21;18.70;99.90
16907;DHT22;8570;52.380;4.654;2023-08-20T07:27:23;18.80;99.90
16907;DHT22;8570;52.380;4.654;2023-08-20T07:32:26;19.00;99.90
16907;DHT22;8570;52.380;4.654;2023-08-20T07:37:32;19.20;99.90
16907;DHT22;8570;52.380;4.654;2023-08-20T07:42:40;19.30;99.90
16907;DHT22;8570;52.380;4.654;2023-08-20T07:47:43;19.40;99.90
16907;DHT22;8570;52.380;4.654;2023-08-20T07:52:45;19.60;99.90
16907;DHT22;8570;52.380;4.654;2023-08-20T07:57:47;19.60;99.90
16907;DHT22;8570;52.380;4.654;2023-08-20T08:03:06;19.70;99.90
16907;DHT22;8570;52.380;4.654;2023-08-20T08:08:15;19.70;99.90
16907;DHT22;8570;52.380;4.654;2023-08-20T08:13:20;19.80;99.90
16907;DHT22;8570;52.380;4.654;2023-08-20T08:18:24;19.90;99.90
16907;DHT22;8570;52.380;4.654;2023-08-20T08:23:27;20.00;99.90
16907;DHT22;8570;52.380;4.654;2023-08-20T08:28:29;20.20;99.90
16907;DHT22;8570;52.380;4.654;2023-08-20T08:33:32;20.20;99.90
16907;DHT22;8570;52.380;4.654;2023-08-20T08:38:34;20.30;99.90
16907;DHT22;8570;52.380;4.654;2023-08-20T08:43:37;20.40;99.90
16907;DHT22;8570;52.380;4.654;2023-08-20T08:48:43;20.50;99.90
16907;DHT22;8570;52.380;4.654;2023-08-20T08:53:48;20.80;99.90
16907;DHT22;8570;52.380;4.654;2023-08-20T08:58:50;20.90;99.90
16907;DHT22;8570;52.380;4.654;2023-08-20T09:03:53;21.10;99.90
16907;DHT22;8570;52.380;4.654;2023-08-20T09:09:05;21.30;99.90
16907;DHT22;8570;52.380;4.654;2023-08-20T09:14:20;21.70;99.90
16907;DHT22;8570;52.380;4.654;2023-08-20T09:19:24;22.00;99.90
16907;DHT22;8570;52.380;4.654;2023-08-20T09:24:32;22.20;99.90
16907;DHT22;8570;52.380;4.654;2023-08-20T09:29:44;22.30;99.90
16907;DHT22;8570;52.380;4.654;2023-08-20T09:34:49;22.50;99.90
16907;DHT22;8570;52.380;4.654;2023-08-20T09:39:51;22.60;99.90
16907;DHT22;8570;52.380;4.654;2023-08-20T09:44:54;22.80;99.90
16907;DHT22;8570;52.380;4.654;2023-08-20T09:49:58;23.00;99.90
16907;DHT22;8570;52.380;4.654;2023-08-20T09:55:01;23.00;99.90
16907;DHT22;8570;52.380;4.654;2023-08-20T10:00:09;23.20;99.90
16907;DHT22;8570;52.380;4.654;2023-08-20T10:05:13;23.40;99.90
16907;DHT22;8570;52.380;4.654;2023-08-20T10:10:15;23.60;99.90
16907;DHT22;8570;52.380;4.654;2023-08-20T10:15:18;23.80;99.90
16907;DHT22;8570;52.380;4.654;2023-08-20T10:20:21;24.00;99.90
16907;DHT22;8570;52.380;4.654;2023-08-20T10:25:26;24.20;99.90
16907;DHT22;8570;52.380;4.654;2023-08-20T10:30:29;24.30;99.90
16907;DHT22;8570;52.380;4.654;2023-08-20T10:41:01;24.30;99.90
16907;DHT22;8570;52.380;4.654;2023-08-20T10:46:07;24.20;99.90
16907;DHT22;8570;52.380;4.654;2023-08-20T10:51:11;24.40;99.90
16907;DHT22;8570;52.380;4.654;2023-08-20T10:56:16;24.50;99.90
16907;DHT22;8570;52.380;4.654;2023-08-20T11:01:22;24.60;99.90
16907;DHT22;8570;52.380;4.654;2023-08-20T11:06:24;24.70;99.90
16907;DHT22;8570;52.380;4.654;2023-08-20T11:11:33;24.80;99.90
16907;DHT22;8570;52.380;4.654;2023-08-20T11:16:35;24.90;99.90
16907;DHT22;8570;52.380;4.654;2023-08-20T11:21:38;25.00;99.90
16907;DHT22;8570;52.380;4.654;2023-08-20T11:26:42;25.20;99.90
16907;DHT22;8570;52.380;4.654;2023-08-20T11:31:45;25.40;99.90
16907;DHT22;8570;52.380;4.654;2023-08-20T11:36:47;25.50;99.90
16907;DHT22;8570;52.380;4.654;2023-08-20T11:41:51;25.70;99.90
16907;DHT22;8570;52.380;4.654;2023-08-20T11:46:53;25.80;99.90
16907;DHT22;8570;52.380;4.654;2023-08-20T11:51:55;25.70;99.90
16907;DHT22;8570;52.380;4.654;2023-08-20T11:57:03;25.60;99.90
16907;DHT22;8570;52.380;4.654;2023-08-20T12:02:06;25.70;99.90
16907;DHT22;8570;52.380;4.654;2023-08-20T12:07:12;25.80;99.90
16907;DHT22;8570;52.380;4.654;2023-08-20T12:12:19;26.00;99.90
16907;DHT22;8570;52.380;4.654;2023-08-20T12:17:21;26.20;99.90
16907;DHT22;8570;52.380;4.654;2023-08-20T12:22:23;26.40;99.90
16907;DHT22;8570;52.380;4.654;2023-08-20T12:27:26;26.30;99.90
16907;DHT22;8570;52.380;4.654;2023-08-20T12:32:29;26.20;99.90
16907;DHT22;8570;52.380;4.654;2023-08-20T12:37:31;26.20;99.90
16907;DHT22;8570;52.380;4.654;2023-08-20T12:42:34;26.20;99.90
16907;DHT22;8570;52.380;4.654;2023-08-20T12:47:36;26.20;99.90
16907;DHT22;8570;52.380;4.654;2023-08-20T12:52:38;26.10;99.90
16907;DHT22;8570;52.380;4.654;2023-08-20T12:57:53;26.20;99.90
16907;DHT22;8570;52.380;4.654;2023-08-20T13:02:56;26.30;99.90
16907;DHT22;8570;52.380;4.654;2023-08-20T13:07:59;26.40;99.90
16907;DHT22;8570;52.380;4.654;2023-08-20T13:13:03;26.50;99.90
16907;DHT22;8570;52.380;4.654;2023-08-20T13:24:02;26.60;99.90
16907;DHT22;8570;52.380;4.654;2023-08-20T13:29:06;26.60;99.90
16907;DHT22;8570;52.380;4.654;2023-08-20T13:34:08;26.70;99.90
16907;DHT22;8570;52.380;4.654;2023-08-20T13:39:15;26.70;99.90
16907;DHT22;8570;52.380;4.654;2023-08-20T13:44:22;26.70;99.90
16907;DHT22;8570;52.380;4.654;2023-08-20T13:49:24;26.60;99.90
16907;DHT22;8570;52.380;4.654;2023-08-20T13:54:26;26.40;99.90
16907;DHT22;8570;52.380;4.654;2023-08-20T13:59:30;26.40;99.90
16907;DHT22;8570;52.380;4.654;2023-08-20T14:04:32;26.40;99.90
16907;DHT22;8570;52.380;4.654;2023-08-20T14:09:34;26.40;99.90
16907;DHT22;8570;52.380;4.654;2023-08-20T14:14:38;26.40;99.90
16907;DHT22;8570;52.380;4.654;2023-08-20T14:19:40;26.40;99.90
16907;DHT22;8570;52.380;4.654;2023-08-20T14:24:42;26.50;99.90
16907;DHT22;8570;52.380;4.654;2023-08-20T14:29:51;26.50;99.90
16907;DHT22;8570;52.380;4.654;2023-08-20T14:34:53;26.50;99.90
16907;DHT22;8570;52.380;4.654;2023-08-20T14:39:55;26.50;99.90
16907;DHT22;8570;52.380;4.654;2023-08-20T14:44:58;26.60;99.90
16907;DHT22;8570;52.380;4.654;2023-08-20T14:50:00;26.60;99.90
16907;DHT22;8570;52.380;4.654;2023-08-20T14:55:03;26.60;99.90
16907;DHT22;8570;52.380;4.654;2023-08-20T15:00:11;26.50;99.90
16907;DHT22;8570;52.380;4.654;2023-08-20T15:05:14;26.40;99.90
16907;DHT22;8570;52.380;4.654;2023-08-20T15:10:16;26.40;99.90
16907;DHT22;8570;52.380;4.654;2023-08-20T15:15:20;26.40;99.90
16907;DHT22;8570;52.380;4.654;2023-08-20T15:20:22;26.30;99.80
16907;DHT22;8570;52.380;4.654;2023-08-20T15:25:24;26.10;99.90
16907;DHT22;8570;52.380;4.654;2023-08-20T15:30:27;25.90;99.90
16907;DHT22;8570;52.380;4.654;2023-08-20T15:35:29;25.70;99.90
16907;DHT22;8570;52.380;4.654;2023-08-20T15:40:31;25.40;99.90
16907;DHT22;8570;52.380;4.654;2023-08-20T15:45:34;25.40;99.90
16907;DHT22;8570;52.380;4.654;2023-08-20T15:50:36;25.40;99.90
16907;DHT22;8570;52.380;4.654;2023-08-20T15:55:38;25.30;99.90
16907;DHT22;8570;52.380;4.654;2023-08-20T16:00:41;25.30;99.90
16907;DHT22;8570;52.380;4.654;2023-08-20T16:05:43;25.30;99.90
16907;DHT22;8570;52.380;4.654;2023-08-20T16:10:45;25.20;99.90
16907;DHT22;8570;52.380;4.654;2023-08-20T16:15:48;25.20;99.90
16907;DHT22;8570;52.380;4.654;2023-08-20T16:20:51;25.30;99.90
16907;DHT22;8570;52.380;4.654;2023-08-20T16:25:53;25.30;99.90
16907;DHT22;8570;52.380;4.654;2023-08-20T16:30:56;25.30;99.90
16907;DHT22;8570;52.380;4.654;2023-08-20T16:36:00;25.30;99.90
16907;DHT22;8570;52.380;4.654;2023-08-20T16:41:02;25.20;99.90
16907;DHT22;8570;52.380;4.654;2023-08-20T16:46:05;25.10;99.90
16907;DHT22;8570;52.380;4.654;2023-08-20T16:51:08;25.10;99.90
16907;DHT22;8570;52.380;4.654;2023-08-20T16:56:10;25.00;99.90
16907;DHT22;8570;52.380;4.654;2023-08-20T17:01:13;24.90;99.90
16907;DHT22;8570;52.380;4.654;2023-08-20T17:06:15;24.80;99.90
16907;DHT22;8570;52.380;4.654;2023-08-20T17:11:18;24.70;99.90
16907;DHT22;8570;52.380;4.654;2023-08-20T17:16:22;24.70;99.90
16907;DHT22;8570;52.380;4.654;2023-08-20T17:21:24;24.60;99.90
16907;DHT22;8570;52.380;4.654;2023-08-20T17:26:26;24.60;99.90
16907;DHT22;8570;52.380;4.654;2023-08-20T17:31:30;24.40;99.90
16907;DHT22;8570;52.380;4.654;2023-08-20T17:36:32;24.20;99.90
16907;DHT22;8570;52.380;4.654;2023-08-20T17:41:36;24.10;99.90
16907;DHT22;8570;52.380;4.654;2023-08-20T17:46:44;24.00;99.90
16907;DHT22;8570;52.380;4.654;2023-08-20T17:51:48;23.80;99.90
16907;DHT22;8570;52.380;4.654;2023-08-20T17:56:50;23.60;99.90
16907;DHT22;8570;52.380;4.654;2023-08-20T18:01:53;23.40;99.90
16907;DHT22;8570;52.380;4.654;2023-08-20T18:06:55;23.30;99.90
16907;DHT22;8570;52.380;4.654;2023-08-20T18:11:57;23.10;99.90
16907;DHT22;8570;52.380;4.654;2023-08-20T18:17:01;23.10;99.90
16907;DHT22;8570;52.380;4.654;2023-08-20T18:22:03;23.00;99.90
16907;DHT22;8570;52.380;4.654;2023-08-20T18:27:05;22.80;99.90
16907;DHT22;8570;52.380;4.654;2023-08-20T18:32:08;22.70;99.90
16907;DHT22;8570;52.380;4.654;2023-08-20T18:37:10;22.70;99.90
16907;DHT22;8570;52.380;4.654;2023-08-20T18:42:12;22.60;99.90
16907;DHT22;8570;52.380;4.654;2023-08-20T18:47:16;22.50;99.90
16907;DHT22;8570;52.380;4.654;2023-08-20T18:52:18;22.50;99.90
16907;DHT22;8570;52.380;4.654;2023-08-20T18:57:20;22.40;99.90
16907;DHT22;8570;52.380;4.654;2023-08-20T19:02:23;22.30;99.90
16907;DHT22;8570;52.380;4.654;2023-08-20T19:07:25;22.30;99.90
16907;DHT22;8570;52.380;4.654;2023-08-20T19:12:29;22.20;99.90
16907;DHT22;8570;52.380;4.654;2023-08-20T19:17:39;22.10;99.90
16907;DHT22;8570;52.380;4.654;2023-08-20T19:22:43;22.10;99.90
16907;DHT22;8570;52.380;4.654;2023-08-20T19:28:25;22.00;99.90
16907;DHT22;8570;52.380;4.654;2023-08-20T19:39:39;21.80;99.90
16907;DHT22;8570;52.380;4.654;2023-08-20T20:15:08;21.30;99.90
16907;DHT22;8570;52.380;4.654;2023-08-20T20:20:11;21.30;99.90
16907;DHT22;8570;52.380;4.654;2023-08-20T20:25:13;21.20;99.90
16907;DHT22;8570;52.380;4.654;2023-08-20T20:30:19;21.20;99.90
16907;DHT22;8570;52.380;4.654;2023-08-20T20:35:24;21.10;99.90
16907;DHT22;8570;52.380;4.654;2023-08-20T20:40:27;21.10;99.90
16907;DHT22;8570;52.380;4.654;2023-08-20T20:45:31;21.10;99.90
16907;DHT22;8570;52.380;4.654;2023-08-20T20:50:33;21.00;99.90
16907;DHT22;8570;52.380;4.654;2023-08-20T20:55:35;21.00;99.90
16907;DHT22;8570;52.380;4.654;2023-08-20T21:00:38;20.90;99.90
16907;DHT22;8570;52.380;4.654;2023-08-20T21:05:43;20.90;99.90
16907;DHT22;8570;52.380;4.654;2023-08-20T21:10:45;20.80;99.90
16907;DHT22;8570;52.380;4.654;2023-08-20T21:15:48;20.70;99.90
16907;DHT22;8570;52.380;4.654;2023-08-20T21:20:50;20.70;99.90
16907;DHT22;8570;52.380;4.654;2023-08-20T21:25:52;20.60;99.90
16907;DHT22;8570;52.380;4.654;2023-08-20T21:30:57;20.60;99.90
16907;DHT22;8570;52.380;4.654;2023-08-20T21:36:05;20.50;99.90
16907;DHT22;8570;52.380;4.654;2023-08-20T21:41:07;20.40;99.90
16907;DHT22;8570;52.380;4.654;2023-08-20T21:46:11;20.40;99.90
16907;DHT22;8570;52.380;4.654;2023-08-20T21:51:15;20.30;99.90
16907;DHT22;8570;52.380;4.654;2023-08-20T21:56:22;20.30;99.90
16907;DHT22;8570;52.380;4.654;2023-08-20T22:01:26;20.20;99.90
16907;DHT22;8570;52.380;4.654;2023-08-20T22:06:28;20.10;99.90
16907;DHT22;8570;52.380;4.654;2023-08-20T22:11:30;20.00;99.90
16907;DHT22;8570;52.380;4.654;2023-08-20T22:16:34;20.00;99.90
16907;DHT22;8570;52.380;4.654;2023-08-20T22:21:36;19.90;99.90
16907;DHT22;8570;52.380;4.654;2023-08-20T22:26:38;19.90;99.90
16907;DHT22;8570;52.380;4.654;2023-08-20T22:31:42;19.80;99.90
16907;DHT22;8570;52.380;4.654;2023-08-20T22:36:44;19.80;99.90
16907;DHT22;8570;52.380;4.654;2023-08-20T22:41:46;19.70;99.90
16907;DHT22;8570;52.380;4.654;2023-08-20T22:46:51;19.60;99.90
16907;DHT22;8570;52.380;4.654;2023-08-20T22:51:53;19.60;99.90
16907;DHT22;8570;52.380;4.654;2023-08-20T22:56:55;19.60;99.90
16907;DHT22;8570;52.380;4.654;2023-08-20T23:01:58;19.50;99.90
16907;DHT22;8570;52.380;4.654;2023-08-20T23:07:00;19.40;99.90
16907;DHT22;8570;52.380;4.654;2023-08-20T23:12:02;19.40;99.90
16907;DHT22;8570;52.380;4.654;2023-08-20T23:17:05;19.30;99.90
16907;DHT22;8570;52.380;4.654;2023-08-20T23:22:09;19.20;99.90
16907;DHT22;8570;52.380;4.654;2023-08-20T23:27:12;19.10;99.90
16907;DHT22;8570;52.380;4.654;2023-08-20T23:32:17;19.10;99.90
16907;DHT22;8570;52.380;4.654;2023-08-20T23:37:19;19.00;99.90
16907;DHT22;8570;52.380;4.654;2023-08-20T23:42:21;18.90;99.90
16907;DHT22;8570;52.380;4.654;2023-08-20T23:47:24;18.90;99.90
16907;DHT22;8570;52.380;4.654;2023-08-20T23:52:26;18.80;99.90
16907;DHT22;8570;52.380;4.654;2023-08-20T23:57:29;18.80;99.90
